createdAt,value
2018-05-17T00:00:41.909Z,13.83
2018-05-17T00:03:09.984Z,13.81
2018-05-17T00:05:38.828Z,13.80
2018-05-17T00:08:06.912Z,13.79
2018-05-17T00:10:35.016Z,13.79
2018-05-17T00:13:03.089Z,13.73
2018-05-17T00:15:31.981Z,13.68
2018-05-17T00:18:00.973Z,13.67
2018-05-17T00:20:29.037Z,13.61
2018-05-17T00:22:58.657Z,13.62
2018-05-17T00:25:27.506Z,13.63
2018-05-17T00:27:55.618Z,13.61
2018-05-17T00:30:23.893Z,13.59
2018-05-17T00:32:52.947Z,13.61
2018-05-17T00:35:21.025Z,13.63
2018-05-17T00:37:49.429Z,13.63
2018-05-17T00:40:17.477Z,13.63
2018-05-17T00:42:45.546Z,13.61
2018-05-17T00:45:13.919Z,13.54
2018-05-17T00:47:42.025Z,13.52
2018-05-17T00:50:10.140Z,13.47
2018-05-17T00:52:38.534Z,13.48
2018-05-17T00:55:06.648Z,13.52
2018-05-17T00:57:34.721Z,13.54
2018-05-17T01:00:03.601Z,13.58
2018-05-17T01:02:31.674Z,13.61
2018-05-17T01:04:59.756Z,13.59
2018-05-17T01:07:28.117Z,13.56
2018-05-17T01:09:56.204Z,13.52
2018-05-17T01:12:24.265Z,13.56
2018-05-17T01:14:52.360Z,13.60
2018-05-17T01:17:21.209Z,13.70
2018-05-17T01:19:49.276Z,13.64
2018-05-17T01:22:17.684Z,13.67
2018-05-17T01:24:45.778Z,13.75
2018-05-17T01:27:15.469Z,13.80
2018-05-17T01:29:45.081Z,13.77
2018-05-17T01:32:14.141Z,13.78
2018-05-17T01:34:42.209Z,13.79
2018-05-17T01:37:10.577Z,13.71
2018-05-17T01:39:38.655Z,13.76
2018-05-17T01:42:06.813Z,13.75
2018-05-17T01:44:35.090Z,13.71
2018-05-17T01:47:03.155Z,13.71
2018-05-17T01:49:31.248Z,13.70
2018-05-17T01:51:59.649Z,13.70
2018-05-17T01:54:27.738Z,13.71
2018-05-17T01:56:56.572Z,13.71
2018-05-17T01:59:25.002Z,13.74
2018-05-17T02:01:53.072Z,13.75
2018-05-17T02:04:21.153Z,13.74
2018-05-17T02:06:50.012Z,13.74
2018-05-17T02:09:18.498Z,13.75
2018-05-17T02:11:46.565Z,13.79
2018-05-17T02:14:14.871Z,13.80
2018-05-17T02:16:42.984Z,13.80
2018-05-17T02:19:11.094Z,13.80
2018-05-17T02:21:39.196Z,13.81
2018-05-17T02:24:08.029Z,13.80
2018-05-17T02:26:36.113Z,13.82
2018-05-17T02:29:04.481Z,13.81
2018-05-17T02:31:32.556Z,13.80
2018-05-17T02:34:00.821Z,13.77
2018-05-17T02:36:29.315Z,13.76
2018-05-17T02:38:57.421Z,13.73
2018-05-17T02:41:25.465Z,13.67
2018-05-17T02:43:53.556Z,13.74
2018-05-17T02:46:21.889Z,13.75
2018-05-17T02:48:49.961Z,13.70
2018-05-17T02:51:18.395Z,13.71
2018-05-17T02:53:46.488Z,13.63
2018-05-17T02:56:15.353Z,13.64
2018-05-17T02:58:43.932Z,13.64
2018-05-17T03:01:11.981Z,13.62
2018-05-17T03:03:40.080Z,13.61
2018-05-17T03:06:08.201Z,13.55
2018-05-17T03:08:36.268Z,13.47
2018-05-17T03:11:04.448Z,13.41
2018-05-17T03:13:32.577Z,13.42
2018-05-17T03:16:01.410Z,13.42
2018-05-17T03:18:29.480Z,13.33
2018-05-17T03:20:58.117Z,13.32
2018-05-17T03:23:27.293Z,13.25
2018-05-17T03:25:55.373Z,13.22
2018-05-17T03:28:23.490Z,13.22
2018-05-17T03:30:51.575Z,13.18
2018-05-17T03:33:20.426Z,13.16
2018-05-17T03:35:49.313Z,13.11
2018-05-17T03:38:18.205Z,13.15
2018-05-17T03:40:47.372Z,13.05
2018-05-17T03:43:16.809Z,12.99
2018-05-17T03:45:45.713Z,12.96
2018-05-17T03:48:14.590Z,12.97
2018-05-17T03:50:42.726Z,13.00
2018-05-17T03:53:10.834Z,12.96
2018-05-17T03:55:39.725Z,12.99
2018-05-17T03:58:08.917Z,12.95
2018-05-17T04:00:36.997Z,12.94
2018-05-17T04:03:05.869Z,12.89
2018-05-17T04:05:34.003Z,12.89
2018-05-17T04:08:02.094Z,12.89
2018-05-17T04:10:30.205Z,12.93
2018-05-17T04:12:59.095Z,12.90
2018-05-17T04:15:27.952Z,12.84
2018-05-17T04:17:56.059Z,12.83
2018-05-17T04:20:25.244Z,12.73
2018-05-17T04:22:54.245Z,12.75
2018-05-17T04:25:22.318Z,12.70
2018-05-17T04:27:51.185Z,12.69
2018-05-17T04:30:19.261Z,12.64
2018-05-17T04:32:48.112Z,12.68
2018-05-17T04:35:16.413Z,12.69
2018-05-17T04:37:44.781Z,12.69
2018-05-17T04:40:12.876Z,12.67
2018-05-17T04:42:40.933Z,12.64
2018-05-17T04:45:09.509Z,12.63
2018-05-17T04:47:37.784Z,12.67
2018-05-17T04:50:05.868Z,12.66
2018-05-17T04:52:34.269Z,12.62
2018-05-17T04:55:02.349Z,12.59
2018-05-17T04:57:31.201Z,12.60
2018-05-17T04:59:59.908Z,12.52
2018-05-17T05:02:28.805Z,12.58
2018-05-17T05:04:56.904Z,12.62
2018-05-17T05:07:25.357Z,12.63
2018-05-17T05:09:53.404Z,12.67
2018-05-17T05:12:22.017Z,12.67
2018-05-17T05:14:50.076Z,12.69
2018-05-17T05:17:18.184Z,12.73
2018-05-17T05:19:46.313Z,12.79
2018-05-17T05:22:14.401Z,12.86
2018-05-17T05:24:42.478Z,12.92
2018-05-17T05:27:11.369Z,12.96
2018-05-17T05:29:40.201Z,13.04
2018-05-17T05:32:09.225Z,13.06
2018-05-17T05:34:38.023Z,13.02
2018-05-17T05:37:06.905Z,12.98
2018-05-17T05:39:35.969Z,12.99
2018-05-17T05:42:04.689Z,12.94
2018-05-17T05:44:33.453Z,12.97
2018-05-17T05:47:02.271Z,12.92
2018-05-17T05:49:31.078Z,12.99
2018-05-17T05:52:00.884Z,12.97
2018-05-17T05:54:30.886Z,12.90
2018-05-17T05:57:00.350Z,12.86
2018-05-17T05:59:29.421Z,12.91
2018-05-17T06:01:59.085Z,12.94
2018-05-17T06:04:27.765Z,12.94
2018-05-17T06:06:55.837Z,12.99
2018-05-17T06:09:24.706Z,13.09
2018-05-17T06:11:53.311Z,12.98
2018-05-17T06:14:21.413Z,13.01
2018-05-17T06:16:51.219Z,13.14
2018-05-17T06:19:20.136Z,13.16
2018-05-17T06:21:49.950Z,13.29
2018-05-17T06:24:19.406Z,13.35
2018-05-17T06:26:48.842Z,13.24
2018-05-17T06:29:18.401Z,13.37
2018-05-17T06:31:47.032Z,13.56
2018-05-17T06:34:15.901Z,13.73
2018-05-17T06:36:45.469Z,13.99
2018-05-17T06:39:13.542Z,14.24
2018-05-17T06:41:42.544Z,14.30
2018-05-17T06:44:11.719Z,14.35
2018-05-17T06:46:40.341Z,14.58
2018-05-17T06:49:09.241Z,14.65
2018-05-17T06:51:38.061Z,14.66
2018-05-17T06:54:07.552Z,14.82
2018-05-17T06:56:36.520Z,14.87
2018-05-17T06:59:05.181Z,14.90
2018-05-17T07:01:34.033Z,14.91
2018-05-17T07:04:03.470Z,14.86
2018-05-17T07:06:32.181Z,14.86
2018-05-17T07:09:01.481Z,14.80
2018-05-17T07:11:30.217Z,14.85
2018-05-17T07:13:59.905Z,14.85
2018-05-17T07:16:29.372Z,14.89
2018-05-17T07:18:58.325Z,14.74
2018-05-17T07:21:26.987Z,14.77
2018-05-17T07:23:56.977Z,14.83
2018-05-17T07:26:25.765Z,14.81
2018-05-17T07:28:54.565Z,14.93
2018-05-17T07:31:23.253Z,15.03
2018-05-17T07:33:51.853Z,15.13
2018-05-17T07:36:21.557Z,15.33
2018-05-17T07:38:50.207Z,15.60
2018-05-17T07:41:18.668Z,15.89
2018-05-17T07:43:47.601Z,16.13
2018-05-17T07:46:17.181Z,16.38
2018-05-17T07:48:45.805Z,16.52
2018-05-17T07:51:14.685Z,16.24
2018-05-17T07:53:43.269Z,16.47
2018-05-17T07:56:11.333Z,16.38
2018-05-17T07:58:40.245Z,16.31
2018-05-17T08:01:09.517Z,16.58
2018-05-17T08:03:38.647Z,16.43
2018-05-17T08:06:09.432Z,16.56
2018-05-17T08:08:38.953Z,16.75
2018-05-17T08:11:08.137Z,16.44
2018-05-17T08:13:36.225Z,16.70
2018-05-17T08:16:05.037Z,16.71
2018-05-17T08:18:34.533Z,16.41
2018-05-17T08:21:03.156Z,16.48
2018-05-17T08:23:32.026Z,16.53
2018-05-17T08:26:01.825Z,16.37
2018-05-17T08:28:30.268Z,16.43
2018-05-17T08:30:59.714Z,16.39
2018-05-17T08:33:29.995Z,16.42
2018-05-17T08:35:58.846Z,16.58
2018-05-17T08:38:28.634Z,16.69
2018-05-17T08:40:57.534Z,16.55
2018-05-17T08:43:26.938Z,16.76
2018-05-17T08:45:55.777Z,16.93
2018-05-17T08:48:25.120Z,17.01
2018-05-17T08:50:53.908Z,16.86
2018-05-17T08:53:23.713Z,16.98
2018-05-17T08:55:52.422Z,17.10
2018-05-17T08:58:21.297Z,17.15
2018-05-17T09:00:49.382Z,17.33
2018-05-17T09:03:18.267Z,17.14
2018-05-17T09:05:48.268Z,17.30
2018-05-17T09:08:16.933Z,16.97
2018-05-17T09:10:45.132Z,17.16
2018-05-17T09:13:14.752Z,17.55
2018-05-17T09:15:43.829Z,17.79
2018-05-17T09:18:11.921Z,18.27
2018-05-17T09:20:41.783Z,18.96
2018-05-17T09:23:11.690Z,19.56
2018-05-17T09:25:40.804Z,20.10
2018-05-17T09:28:09.960Z,20.96
2018-05-17T09:30:39.333Z,21.78
2018-05-17T09:33:08.097Z,21.75
2018-05-17T09:35:37.712Z,22.99
2018-05-17T09:38:07.441Z,23.10
2018-05-17T09:40:36.230Z,22.82
2018-05-17T09:43:04.322Z,23.69
2018-05-17T09:45:33.540Z,24.07
2018-05-17T09:48:02.082Z,24.49
2018-05-17T09:50:30.923Z,24.74
2018-05-17T09:52:59.552Z,24.22
2018-05-17T09:55:28.417Z,24.28
2018-05-17T09:57:56.849Z,24.11
2018-05-17T10:00:26.081Z,24.07
2018-05-17T10:02:54.856Z,24.44
2018-05-17T10:05:22.924Z,24.33
2018-05-17T10:07:51.877Z,24.48
2018-05-17T10:10:22.052Z,24.27
2018-05-17T10:12:50.680Z,25.06
2018-05-17T10:15:20.319Z,25.39
2018-05-17T10:17:48.930Z,25.72
2018-05-17T10:20:17.616Z,25.83
2018-05-17T10:22:47.222Z,26.45
2018-05-17T10:25:15.953Z,27.20
2018-05-17T10:27:45.526Z,27.15
2018-05-17T10:30:14.516Z,27.21
2018-05-17T10:32:43.356Z,28.05
2018-05-17T10:35:12.248Z,26.43
2018-05-17T10:37:41.108Z,27.55
2018-05-17T10:40:09.910Z,27.41
2018-05-17T10:42:39.065Z,28.06
2018-05-17T10:45:07.749Z,27.95
2018-05-17T10:47:36.648Z,28.17
2018-05-17T10:50:04.747Z,26.90
2018-05-17T10:52:33.282Z,27.04
2018-05-17T10:55:01.349Z,26.61
2018-05-17T10:57:30.256Z,26.31
2018-05-17T10:59:59.289Z,26.38
2018-05-17T11:02:29.004Z,27.79
2018-05-17T11:04:58.039Z,28.57
2018-05-17T11:07:27.087Z,29.26
2018-05-17T11:09:55.144Z,28.38
2018-05-17T11:12:24.828Z,28.18
2018-05-17T11:14:53.654Z,28.70
2018-05-17T11:17:22.637Z,29.10
2018-05-17T11:19:51.529Z,29.65
2018-05-17T11:22:19.615Z,28.79
2018-05-17T11:24:48.297Z,29.23
2018-05-17T11:27:17.473Z,28.40
2018-05-17T11:29:46.349Z,29.21
2018-05-17T11:32:15.385Z,27.30
2018-05-17T11:34:44.873Z,29.17
2018-05-17T11:37:13.460Z,27.98
2018-05-17T11:39:42.346Z,28.65
2018-05-17T11:42:11.193Z,29.32
2018-05-17T11:44:39.798Z,29.65
2018-05-17T11:47:07.899Z,27.60
2018-05-17T11:49:36.653Z,27.59
2018-05-17T11:52:05.743Z,28.02
2018-05-17T11:54:34.564Z,28.20
2018-05-17T11:57:03.161Z,26.84
2018-05-17T11:59:32.757Z,26.16
2018-05-17T12:02:01.830Z,27.26
2018-05-17T12:04:30.648Z,28.35
2018-05-17T12:07:00.545Z,29.00
2018-05-17T12:09:29.221Z,29.40
2018-05-17T12:11:58.037Z,29.67
2018-05-17T12:14:26.818Z,28.96
2018-05-17T12:16:55.468Z,28.19
2018-05-17T12:19:24.609Z,28.36
2018-05-17T12:21:53.603Z,28.68
2018-05-17T12:24:22.365Z,28.37
2018-05-17T12:26:50.472Z,27.29
2018-05-17T12:29:19.553Z,27.64
2018-05-17T12:31:49.193Z,28.71
2018-05-17T12:34:18.673Z,29.25
2018-05-17T12:36:48.092Z,29.70
2018-05-17T12:39:16.816Z,30.12
2018-05-17T12:41:45.404Z,29.32
2018-05-17T12:44:14.336Z,30.18
2018-05-17T12:46:43.904Z,30.60
2018-05-17T12:49:11.973Z,29.00
2018-05-17T12:51:40.669Z,30.27
2018-05-17T12:54:09.256Z,30.25
2018-05-17T12:56:37.973Z,29.55
2018-05-17T12:59:07.765Z,30.15
2018-05-17T13:01:35.849Z,30.00
2018-05-17T13:04:04.605Z,30.58
2018-05-17T13:06:34.205Z,30.69
2018-05-17T13:09:03.239Z,30.58
2018-05-17T13:11:32.220Z,29.34
2018-05-17T13:14:00.273Z,30.18
2018-05-17T13:16:30.117Z,30.64
2018-05-17T13:19:00.469Z,31.16
2018-05-17T13:21:28.995Z,31.15
2018-05-17T13:23:58.325Z,30.84
2018-05-17T13:26:26.997Z,31.02
2018-05-17T13:28:56.268Z,30.78
2018-05-17T13:31:24.340Z,30.77
2018-05-17T13:33:52.413Z,31.23
2018-05-17T13:36:21.017Z,30.45
2018-05-17T13:38:49.925Z,31.72
2018-05-17T13:41:17.964Z,31.58
2018-05-17T13:43:46.939Z,30.36
2018-05-17T13:46:15.481Z,29.03
2018-05-17T13:48:46.129Z,28.46
2018-05-17T13:51:15.390Z,28.12
2018-05-17T13:53:43.440Z,27.53
2018-05-17T13:56:12.424Z,27.92
2018-05-17T13:58:41.125Z,27.24
2018-05-17T14:01:09.941Z,25.32
2018-05-17T14:03:38.025Z,25.11
2018-05-17T14:06:06.877Z,25.12
2018-05-17T14:08:35.230Z,25.94
2018-05-17T14:11:04.218Z,26.57
2018-05-17T14:13:32.949Z,27.03
2018-05-17T14:16:01.033Z,26.69
2018-05-17T14:18:29.707Z,26.43
2018-05-17T14:20:57.760Z,26.45
2018-05-17T14:23:25.817Z,24.99
2018-05-17T14:25:54.533Z,25.53
2018-05-17T14:28:22.613Z,25.31
2018-05-17T14:30:51.597Z,26.86
2018-05-17T14:33:19.684Z,27.24
2018-05-17T14:35:48.457Z,27.46
2018-05-17T14:38:16.941Z,26.98
2018-05-17T14:40:45.705Z,27.42
2018-05-17T14:43:13.769Z,26.16
2018-05-17T14:45:41.885Z,24.51
2018-05-17T14:48:09.956Z,24.61
2018-05-17T14:50:38.813Z,24.86
2018-05-17T14:53:06.902Z,25.51
2018-05-17T14:55:36.509Z,24.94
2018-05-17T14:58:04.564Z,25.02
2018-05-17T15:00:33.381Z,25.12
2018-05-17T15:03:03.401Z,24.94
2018-05-17T15:05:32.261Z,25.22
2018-05-17T15:08:00.961Z,25.34
2018-05-17T15:10:29.048Z,24.93
2018-05-17T15:12:57.120Z,24.79
2018-05-17T15:15:26.276Z,24.96
2018-05-17T15:17:55.177Z,24.91
2018-05-17T15:20:23.237Z,24.74
2018-05-17T15:22:51.309Z,24.32
2018-05-17T15:25:19.716Z,24.34
2018-05-17T15:27:48.465Z,23.48
2018-05-17T15:30:17.160Z,22.96
2018-05-17T15:32:45.850Z,23.51
2018-05-17T15:35:13.909Z,23.54
2018-05-17T15:37:42.837Z,23.10
2018-05-17T15:40:10.921Z,23.33
2018-05-17T15:42:40.384Z,23.26
2018-05-17T15:45:08.486Z,23.20
2018-05-17T15:47:36.573Z,23.01
2018-05-17T15:50:06.133Z,22.90
2018-05-17T15:52:34.960Z,22.99
2018-05-17T15:55:04.045Z,22.90
2018-05-17T15:57:33.141Z,22.72
2018-05-17T16:00:02.209Z,22.20
2018-05-17T16:02:31.025Z,22.22
2018-05-17T16:04:59.098Z,21.09
2018-05-17T16:07:27.180Z,21.09
2018-05-17T16:09:55.553Z,21.25
2018-05-17T16:12:23.617Z,21.13
2018-05-17T16:14:51.733Z,21.18
2018-05-17T16:17:20.065Z,21.34
2018-05-17T16:19:48.154Z,21.57
2018-05-17T16:22:16.220Z,21.50
2018-05-17T16:24:44.494Z,20.73
2018-05-17T16:27:12.811Z,21.13
2018-05-17T16:29:40.809Z,20.89
2018-05-17T16:32:09.592Z,21.37
2018-05-17T16:34:38.417Z,21.60
2018-05-17T16:37:06.469Z,21.22
2018-05-17T16:39:34.525Z,21.15
2018-05-17T16:42:03.625Z,20.64
2018-05-17T16:44:32.297Z,21.08
2018-05-17T16:47:00.993Z,21.28
2018-05-17T16:49:29.680Z,21.25
2018-05-17T16:51:58.662Z,21.28
2018-05-17T16:54:27.615Z,21.27
2018-05-17T16:56:55.575Z,21.19
2018-05-17T16:59:24.433Z,20.99
2018-05-17T17:01:53.441Z,21.03
2018-05-17T17:04:22.405Z,21.01
2018-05-17T17:06:50.544Z,20.44
2018-05-17T17:09:18.593Z,20.60
2018-05-17T17:11:47.268Z,20.31
2018-05-17T17:14:15.325Z,20.35
2018-05-17T17:16:43.406Z,19.81
2018-05-17T17:19:12.269Z,19.82
2018-05-17T17:21:40.336Z,19.79
2018-05-17T17:24:08.408Z,19.80
2018-05-17T17:26:36.788Z,19.78
2018-05-17T17:29:05.587Z,19.82
2018-05-17T17:31:34.365Z,19.69
2018-05-17T17:34:03.159Z,19.67
2018-05-17T17:36:31.240Z,19.63
2018-05-17T17:38:59.325Z,19.48
2018-05-17T17:41:27.710Z,18.78
2018-05-17T17:43:55.757Z,18.92
2018-05-17T17:46:23.818Z,19.03
2018-05-17T17:48:52.296Z,19.04
2018-05-17T17:51:21.216Z,19.04
2018-05-17T17:53:49.302Z,19.05
2018-05-17T17:56:17.340Z,18.88
2018-05-17T17:58:46.325Z,18.78
2018-05-17T18:01:14.409Z,18.62
2018-05-17T18:03:42.497Z,18.29
2018-05-17T18:06:10.597Z,18.41
2018-05-17T18:08:39.414Z,18.46
2018-05-17T18:11:07.489Z,18.43
2018-05-17T18:13:35.573Z,18.31
2018-05-17T18:16:03.637Z,18.11
2018-05-17T18:18:31.704Z,18.18
2018-05-17T18:20:59.816Z,18.08
2018-05-17T18:23:27.868Z,18.07
2018-05-17T18:25:55.928Z,17.61
2018-05-17T18:28:24.745Z,17.64
2018-05-17T18:30:52.797Z,17.61
2018-05-17T18:33:20.860Z,17.56
2018-05-17T18:35:48.957Z,17.47
2018-05-17T18:38:17.045Z,17.38
2018-05-17T18:40:45.089Z,17.27
2018-05-17T18:43:13.216Z,17.23
2018-05-17T18:45:42.025Z,17.24
2018-05-17T18:48:10.120Z,17.19
2018-05-17T18:50:38.270Z,16.97
2018-05-17T18:53:06.338Z,16.84
2018-05-17T18:55:34.413Z,16.86
2018-05-17T18:58:02.484Z,16.85
2018-05-17T19:00:30.581Z,16.78
2018-05-17T19:02:58.670Z,16.75
2018-05-17T19:05:27.044Z,16.60
2018-05-17T19:07:55.117Z,16.53
2018-05-17T19:10:23.193Z,16.51
2018-05-17T19:12:51.641Z,16.47
2018-05-17T19:15:19.700Z,16.36
2018-05-17T19:17:47.781Z,16.25
2018-05-17T19:20:15.935Z,16.14
2018-05-17T19:22:43.973Z,15.97
2018-05-17T19:25:12.805Z,15.74
2018-05-17T19:27:41.192Z,15.46
2018-05-17T19:30:09.461Z,15.25
2018-05-17T19:32:37.557Z,15.13
2018-05-17T19:35:06.328Z,14.97
2018-05-17T19:37:34.417Z,14.92
2018-05-17T19:40:02.501Z,14.86
2018-05-17T19:42:30.881Z,14.71
2018-05-17T19:44:58.932Z,14.55
2018-05-17T19:47:26.992Z,14.40
2018-05-17T19:49:55.405Z,14.31
2018-05-17T19:52:23.452Z,14.10
2018-05-17T19:54:51.521Z,13.88
2018-05-17T19:57:19.644Z,13.83
2018-05-17T19:59:48.489Z,13.74
2018-05-17T20:02:16.576Z,13.65
2018-05-17T20:04:44.937Z,13.56
2018-05-17T20:07:13.024Z,13.47
2018-05-17T20:09:41.113Z,13.41
2018-05-17T20:12:09.555Z,13.20
2018-05-17T20:14:37.617Z,13.13
2018-05-17T20:17:05.709Z,13.12
2018-05-17T20:19:34.288Z,13.10
2018-05-17T20:22:02.361Z,13.08
2018-05-17T20:24:30.449Z,13.04
2018-05-17T20:26:58.545Z,13.00
2018-05-17T20:29:27.393Z,12.87
2018-05-17T20:31:56.640Z,12.85
2018-05-17T20:34:24.742Z,12.78
2018-05-17T20:36:52.814Z,12.77
2018-05-17T20:39:20.896Z,12.74
2018-05-17T20:41:48.957Z,12.64
2018-05-17T20:44:17.064Z,12.55
2018-05-17T20:46:45.121Z,12.45
2018-05-17T20:49:13.181Z,12.37
2018-05-17T20:51:41.240Z,12.32
2018-05-17T20:54:09.528Z,12.26
2018-05-17T20:56:37.588Z,12.17
2018-05-17T20:59:05.685Z,12.11
2018-05-17T21:01:34.048Z,12.01
2018-05-17T21:04:02.113Z,11.93
2018-05-17T21:06:30.193Z,11.86
2018-05-17T21:08:58.673Z,11.86
2018-05-17T21:11:26.736Z,11.83
2018-05-17T21:13:54.802Z,11.77
2018-05-17T21:16:23.121Z,11.68
2018-05-17T21:18:51.193Z,11.64
2018-05-17T21:21:19.257Z,11.58
2018-05-17T21:23:48.024Z,11.54
2018-05-17T21:26:16.086Z,11.50
2018-05-17T21:28:44.160Z,11.42
2018-05-17T21:31:12.453Z,11.32
2018-05-17T21:33:40.541Z,11.22
2018-05-17T21:36:08.585Z,11.21
2018-05-17T21:38:36.965Z,11.16
2018-05-17T21:41:05.049Z,11.12
2018-05-17T21:43:33.148Z,11.05
2018-05-17T21:46:01.212Z,11.00
2018-05-17T21:48:29.340Z,10.92
2018-05-17T21:50:57.437Z,10.80
2018-05-17T21:53:25.521Z,10.77
2018-05-17T21:55:53.564Z,10.72
2018-05-17T21:58:21.648Z,10.71
2018-05-17T22:00:49.741Z,10.68
2018-05-17T22:03:17.808Z,10.69
2018-05-17T22:05:45.850Z,10.62
2018-05-17T22:08:13.973Z,10.55
2018-05-17T22:10:42.799Z,10.58
2018-05-17T22:13:10.871Z,10.51
2018-05-17T22:15:38.921Z,10.47
2018-05-17T22:18:06.965Z,10.47
2018-05-17T22:20:35.829Z,10.46
2018-05-17T22:23:03.913Z,10.37
2018-05-17T22:25:32.074Z,10.36
2018-05-17T22:28:00.121Z,10.35
2018-05-17T22:30:28.537Z,10.40
2018-05-17T22:32:56.609Z,10.37
2018-05-17T22:35:24.652Z,10.33
2018-05-17T22:37:53.033Z,10.27
2018-05-17T22:40:21.126Z,10.26
2018-05-17T22:42:49.201Z,10.22
2018-05-17T22:45:17.581Z,10.14
2018-05-17T22:47:45.638Z,10.07
2018-05-17T22:50:13.693Z,10.04
2018-05-17T22:52:42.001Z,10.04
2018-05-17T22:55:10.041Z,9.99
2018-05-17T22:57:38.126Z,10.00
2018-05-17T23:00:06.593Z,10.02
2018-05-17T23:02:34.785Z,9.92
2018-05-17T23:05:02.840Z,9.84
2018-05-17T23:07:31.218Z,9.87
2018-05-17T23:09:59.301Z,9.83
2018-05-17T23:12:27.373Z,9.79
2018-05-17T23:14:55.736Z,9.73
2018-05-17T23:17:23.833Z,9.68
2018-05-17T23:19:51.892Z,9.67
2018-05-17T23:22:20.169Z,9.62
2018-05-17T23:24:48.229Z,9.61
2018-05-17T23:27:16.572Z,9.60
2018-05-17T23:29:44.667Z,9.39
2018-05-17T23:32:12.709Z,9.42
2018-05-17T23:34:41.553Z,9.48
2018-05-17T23:37:10.149Z,9.45
2018-05-17T23:39:39.013Z,9.46
2018-05-17T23:42:07.072Z,9.27
2018-05-17T23:44:35.187Z,9.26
2018-05-17T23:47:03.973Z,9.25
2018-05-17T23:49:32.016Z,9.18
2018-05-17T23:52:00.105Z,9.20
2018-05-17T23:54:28.185Z,9.12
2018-05-17T23:56:56.229Z,9.08
2018-05-17T23:59:24.294Z,8.95
